Time;durP1;ratioP1;P1;durP2;ratioP2;P2;SDS_P1;SDS_P2;PMS_P1;PMS_P2;Temp;Humidity;BMP_temperature;BMP_pressure;BME280_temperature;BME280_humidity;BME280_pressure;Samples;Min_cycle;Max_cycle;Signal;HPM_P1;HPM_P2
2021/10/13 00:01:52;;;;;;;2.77;1.30;;;2.60;99.90;2.20;100665.00;;;;4937402;28;109269;-66
2021/10/13 00:04:18;;;;;;;1.97;1.57;;;2.50;99.90;2.10;100672.00;;;;4937182;28;109720;-65
2021/10/13 00:06:44;;;;;;;1.30;1.20;;;2.50;99.90;2.10;100663.00;;;;4937065;28;87938;-65
2021/10/13 00:09:10;;;;;;;1.33;1.17;;;2.40;99.90;2.00;100669.00;;;;4942790;28;117867;-65
2021/10/13 00:11:37;;;;;;;2.43;1.47;;;2.50;99.90;2.00;100667.00;;;;4938040;28;87940;-66
2021/10/13 00:14:03;;;;;;;0.93;0.87;;;2.30;99.90;2.00;100664.00;;;;4937884;28;88648;-66
2021/10/13 00:16:33;;;;;;;1.50;1.30;;;2.30;99.90;1.90;100673.00;;;;4936769;28;88864;-65
2021/10/13 00:18:59;;;;;;;5.87;1.50;;;2.20;99.90;1.90;100675.00;;;;4936977;28;89639;-65
2021/10/13 00:21:25;;;;;;;1.30;1.10;;;2.20;99.90;1.80;100672.00;;;;4937245;28;107304;-66
2021/10/13 00:23:50;;;;;;;1.97;1.70;;;2.10;99.90;1.80;100668.00;;;;4938382;28;87684;-65
2021/10/13 00:26:16;;;;;;;1.20;1.00;;;2.10;99.90;1.80;100678.00;;;;4937902;28;87797;-65
2021/10/13 00:28:42;;;;;;;2.07;1.70;;;2.10;99.90;1.80;100678.00;;;;4937068;28;115554;-65
2021/10/13 00:31:08;;;;;;;2.20;1.63;;;2.00;99.90;1.70;100674.00;;;;4937257;28;110990;-65
2021/10/13 00:33:34;;;;;;;2.00;1.27;;;2.00;99.90;1.70;100681.00;;;;4937161;28;100864;-65
2021/10/13 00:36:00;;;;;;;1.50;1.27;;;1.90;99.90;1.70;100668.00;;;;4936529;28;119073;-65
2021/10/13 00:38:26;;;;;;;2.50;1.40;;;1.70;99.90;1.60;100664.00;;;;4936375;28;116525;-65
2021/10/13 00:40:52;;;;;;;1.83;1.47;;;2.00;99.90;1.60;100669.00;;;;4936989;28;88714;-65
2021/10/13 00:43:17;;;;;;;5.77;1.50;;;1.90;99.90;1.60;100668.00;;;;4935781;28;107605;-65
2021/10/13 00:45:43;;;;;;;2.47;1.73;;;1.80;99.90;1.50;100671.00;;;;4937497;28;88535;-65
2021/10/13 00:48:09;;;;;;;2.23;1.53;;;2.10;99.90;1.50;100661.00;;;;4919084;28;88237;-65
2021/10/13 00:50:35;;;;;;;2.23;2.03;;;1.80;99.90;1.50;100664.00;;;;4937612;28;87711;-65
2021/10/13 00:53:01;;;;;;;2.37;1.37;;;1.80;99.90;1.40;100665.00;;;;4919682;28;87966;-64
2021/10/13 00:55:27;;;;;;;1.23;1.13;;;1.80;99.90;1.40;100662.00;;;;4936249;28;117409;-65
2021/10/13 00:57:53;;;;;;;2.43;1.23;;;1.70;99.90;1.40;100661.00;;;;4918766;28;117184;-65
2021/10/13 01:00:22;;;;;;;1.80;1.37;;;1.70;99.90;1.30;100660.00;;;;4936365;28;87820;-65
2021/10/13 01:03:19;;;;;;;3.33;1.43;;;1.60;99.90;1.20;100670.00;;;;4936723;28;92936;-65
2021/10/13 01:06:06;;;;;;;1.50;1.40;;;1.60;99.90;1.20;100673.00;;;;4917794;28;88672;-65
2021/10/13 01:08:58;;;;;;;1.17;1.07;;;1.60;99.90;1.20;100682.00;;;;4917611;28;101921;-64
2021/10/13 01:11:43;;;;;;;1.97;1.47;;;1.50;99.90;1.20;100687.00;;;;4937145;28;87745;-64
2021/10/13 01:14:28;;;;;;;2.13;1.80;;;1.50;99.90;1.20;100681.00;;;;4918713;28;92922;-65
2021/10/13 01:17:01;;;;;;;1.87;1.33;;;1.50;99.90;1.20;100676.00;;;;4918721;28;88538;-65
2021/10/13 01:19:46;;;;;;;2.23;1.43;;;1.50;99.90;1.30;100690.00;;;;4918835;28;88663;-64
2021/10/13 01:22:40;;;;;;;3.33;1.40;;;1.50;99.90;1.40;100692.00;;;;4937368;28;87744;-66
2021/10/13 01:25:46;;;;;;;1.20;1.10;;;1.60;99.90;1.40;100695.00;;;;4906154;28;86987;-65
2021/10/13 01:28:15;;;;;;;2.20;2.00;;;1.70;99.90;1.50;100700.00;;;;4936947;28;88171;-65
2021/10/13 01:30:53;;;;;;;2.03;1.77;;;1.70;99.90;1.50;100704.00;;;;4917613;28;87964;-65
2021/10/13 01:33:34;;;;;;;1.13;0.83;;;1.80;99.90;1.50;100698.00;;;;4936591;28;88913;-65
2021/10/13 01:36:05;;;;;;;2.27;1.77;;;1.80;99.90;1.60;100704.00;;;;4936649;28;87727;-65
2021/10/13 01:38:37;;;;;;;2.53;1.37;;;1.80;99.90;1.60;100690.00;;;;4918049;28;88429;-65
2021/10/13 01:41:04;;;;;;;2.87;1.73;;;1.80;99.90;1.60;100704.00;;;;4936192;28;88803;-65
2021/10/13 01:43:35;;;;;;;2.10;1.77;;;1.90;99.90;1.60;100708.00;;;;4918434;28;87941;-65
2021/10/13 01:46:04;;;;;;;2.43;1.43;;;2.60;99.90;1.60;100701.00;;;;4936481;28;87755;-65
2021/10/13 01:48:32;;;;;;;2.17;1.53;;;1.90;99.90;1.60;100710.00;;;;4918197;28;88233;-65
2021/10/13 01:50:58;;;;;;;2.03;1.60;;;1.90;99.90;1.70;100710.00;;;;4918948;28;88798;-65
2021/10/13 01:53:25;;;;;;;2.17;1.67;;;2.00;99.90;1.70;100721.00;;;;4918188;28;87708;-65
2021/10/13 01:55:53;;;;;;;1.50;1.40;;;2.00;99.90;1.80;100729.00;;;;4918621;28;88004;-66
2021/10/13 01:58:21;;;;;;;1.80;1.70;;;2.00;99.90;1.90;100730.00;;;;4917575;28;88940;-65
2021/10/13 02:00:50;;;;;;;2.03;1.53;;;2.00;99.90;1.80;100727.00;;;;4918220;28;88754;-65
2021/10/13 02:03:20;;;;;;;5.13;1.80;;;2.10;99.90;1.80;100734.00;;;;4935860;28;87755;-65
2021/10/13 02:05:49;;;;;;;1.73;1.57;;;1.70;99.90;1.80;100731.00;;;;4918559;28;88805;-65
2021/10/13 02:08:16;;;;;;;4.53;1.97;;;2.10;99.90;1.80;100723.00;;;;4941213;28;88969;-65
2021/10/13 02:10:45;;;;;;;1.93;1.50;;;2.10;99.90;1.70;100739.00;;;;4925037;28;95733;-65
2021/10/13 02:13:14;;;;;;;2.73;1.97;;;2.00;99.90;1.70;100741.00;;;;4920369;28;88021;-65
2021/10/13 02:15:42;;;;;;;1.77;1.63;;;1.40;99.90;1.60;100749.00;;;;4919024;28;87073;-64
2021/10/13 02:18:12;;;;;;;2.00;1.63;;;2.00;99.90;1.60;100735.00;;;;4917687;28;90453;-66
2021/10/13 02:20:38;;;;;;;2.33;1.63;;;1.80;99.90;1.50;100747.00;;;;4936587;28;87903;-65
2021/10/13 02:23:05;;;;;;;2.20;1.83;;;1.80;99.90;1.50;100740.00;;;;4916955;28;110945;-65
2021/10/13 02:25:37;;;;;;;1.60;1.50;;;1.80;99.90;1.40;100753.00;;;;4917908;28;91325;-65
2021/10/13 02:28:09;;;;;;;7.50;2.20;;;1.70;99.90;1.40;100749.00;;;;4916738;28;98410;-64
2021/10/13 02:30:35;;;;;;;1.70;1.60;;;1.70;99.90;1.40;100755.00;;;;4918118;28;88964;-65
2021/10/13 02:33:00;;;;;;;3.20;1.80;;;1.70;99.90;1.40;100756.00;;;;4935453;28;87656;-65
2021/10/13 02:35:26;;;;;;;3.37;1.97;;;2.10;99.90;1.30;100757.00;;;;4935238;28;98365;-65
2021/10/13 02:37:52;;;;;;;2.77;1.73;;;1.60;99.90;1.30;100754.00;;;;4935773;28;93934;-67
2021/10/13 02:40:18;;;;;;;2.67;1.60;;;1.60;99.90;1.20;100762.00;;;;4936760;28;89777;-66
2021/10/13 02:42:44;;;;;;;3.63;1.90;;;1.60;99.90;1.20;100759.00;;;;4941754;28;96218;-66
2021/10/13 02:45:11;;;;;;;2.00;1.80;;;1.50;99.90;1.20;100768.00;;;;4941491;28;107236;-66
2021/10/13 02:47:56;;;;;;;2.27;2.00;;;1.80;99.90;1.10;100771.00;;;;4941659;28;89682;-66
2021/10/13 02:50:41;;;;;;;3.83;2.33;;;1.40;99.90;1.10;100770.00;;;;4942173;28;88312;-66
2021/10/13 02:53:57;;;;;;;2.13;1.93;;;1.40;99.90;1.00;100766.00;;;;4923521;28;87660;-66
2021/10/13 02:56:32;;;;;;;2.07;1.50;;;1.40;99.90;1.00;100776.00;;;;4861371;28;88019;-67
2021/10/13 02:59:26;;;;;;;1.73;1.47;;;1.40;99.90;1.00;100779.00;;;;4844732;28;88005;-66
2021/10/13 03:01:57;;;;;;;3.17;1.90;;;1.30;99.90;1.00;100777.00;;;;4904286;28;87665;-67
2021/10/13 03:04:28;;;;;;;3.57;1.80;;;1.90;99.90;1.00;100780.00;;;;4921352;28;87964;-66
2021/10/13 03:07:01;;;;;;;2.97;1.80;;;1.30;99.90;0.90;100784.00;;;;4925650;28;87312;-66
2021/10/13 03:09:33;;;;;;;2.23;2.03;;;1.20;99.90;0.90;100782.00;;;;4923670;28;87906;-67
2021/10/13 03:12:02;;;;;;;3.77;1.70;;;1.30;99.90;0.90;100783.00;;;;4923757;28;88120;-66
2021/10/13 03:14:30;;;;;;;2.43;1.53;;;1.20;99.90;0.90;100784.00;;;;4940525;28;93825;-67
2021/10/13 03:16:57;;;;;;;2.17;1.97;;;1.20;99.90;0.90;100790.00;;;;4923717;28;88739;-67
2021/10/13 03:19:25;;;;;;;2.00;1.50;;;1.20;99.90;0.90;100799.00;;;;4940709;28;117595;-67
2021/10/13 03:21:52;;;;;;;2.67;1.73;;;1.20;99.90;0.80;100798.00;;;;4941550;28;101253;-67
2021/10/13 03:24:20;;;;;;;2.97;1.80;;;1.10;99.90;0.80;100793.00;;;;4923613;28;94168;-67
2021/10/13 03:26:48;;;;;;;4.13;2.20;;;1.70;99.90;0.80;100797.00;;;;4941801;28;87881;-67
2021/10/13 03:29:14;;;;;;;4.20;2.10;;;1.30;99.90;0.90;100796.00;;;;4941100;28;88119;-67
2021/10/13 03:31:40;;;;;;;2.37;1.77;;;1.10;99.90;0.80;100802.00;;;;4941734;28;88864;-67
2021/10/13 03:34:07;;;;;;;2.40;1.83;;;1.10;99.90;0.90;100806.00;;;;4941483;28;94806;-67
2021/10/13 03:36:48;;;;;;;2.80;1.90;;;1.20;99.90;0.80;100797.00;;;;4941316;28;87671;-67
2021/10/13 03:39:14;;;;;;;1.67;1.37;;;1.10;99.90;0.80;100797.00;;;;4941110;28;88825;-68
2021/10/13 03:41:41;;;;;;;50.67;13.53;;;1.80;99.90;0.80;100800.00;;;;4923621;28;93307;-67
2021/10/13 03:44:07;;;;;;;2.47;1.77;;;1.80;99.90;0.80;100806.00;;;;4940855;28;87715;-67
2021/10/13 03:46:33;;;;;;;3.00;1.73;;;1.10;99.90;0.80;100805.00;;;;4922753;28;87744;-66
2021/10/13 03:48:59;;;;;;;1.50;1.40;;;1.20;99.90;0.80;100812.00;;;;4940988;28;89130;-67
2021/10/13 03:51:25;;;;;;;4.47;3.53;;;1.20;99.90;0.80;100820.00;;;;4941460;28;88420;-67
2021/10/13 03:53:51;;;;;;;2.57;2.03;;;1.10;99.90;0.80;100814.00;;;;4937371;28;87862;-67
2021/10/13 03:56:18;;;;;;;2.17;1.50;;;1.10;99.90;0.80;100822.00;;;;4937654;28;108865;-66
2021/10/13 03:58:45;;;;;;;3.33;1.90;;;1.10;99.90;0.80;100821.00;;;;4937353;28;89197;-66
2021/10/13 04:01:12;;;;;;;2.07;1.43;;;1.10;99.90;0.90;100827.00;;;;4937924;28;88145;-67
2021/10/13 04:03:39;;;;;;;2.00;1.50;;;1.20;99.90;0.80;100826.00;;;;4937787;28;88638;-66
2021/10/13 04:06:04;;;;;;;1.63;1.53;;;1.10;99.90;0.90;100834.00;;;;4938576;28;87919;-66
2021/10/13 04:08:31;;;;;;;5.10;1.83;;;1.20;99.90;0.90;100838.00;;;;4937427;28;88255;-67
2021/10/13 04:10:57;;;;;;;3.67;1.77;;;1.20;99.90;0.80;100839.00;;;;4902872;28;89610;-66
2021/10/13 04:13:23;;;;;;;1.90;1.80;;;1.20;99.90;0.80;100836.00;;;;4936931;28;110440;-66
2021/10/13 04:15:48;;;;;;;1.87;1.67;;;1.20;99.90;0.90;100836.00;;;;4938110;28;87588;-66
2021/10/13 04:18:14;;;;;;;1.77;1.43;;;1.30;99.90;0.90;100836.00;;;;4937031;28;117522;-66
2021/10/13 04:20:39;;;;;;;1.80;1.40;;;1.20;99.90;1.00;100844.00;;;;4937273;28;107458;-66
2021/10/13 04:23:05;;;;;;;2.40;1.97;;;1.20;99.90;1.00;100847.00;;;;4937257;28;110803;-65
2021/10/13 04:25:31;;;;;;;3.13;2.20;;;1.20;99.90;1.10;100856.00;;;;4936621;28;108334;-66
2021/10/13 04:27:56;;;;;;;2.67;1.93;;;1.30;99.90;1.10;100858.00;;;;4935951;28;119843;-66
2021/10/13 04:30:22;;;;;;;3.80;1.67;;;1.40;99.90;1.10;100856.00;;;;4937068;28;104066;-66
2021/10/13 04:32:48;;;;;;;3.80;1.93;;;1.40;99.90;1.10;100850.00;;;;4936563;28;105043;-67
2021/10/13 04:35:14;;;;;;;3.67;2.17;;;1.40;99.90;1.10;100859.00;;;;4936478;28;108958;-67
2021/10/13 04:37:39;;;;;;;4.70;3.10;;;1.40;99.90;1.10;100854.00;;;;4936324;28;116289;-67
2021/10/13 04:40:06;;;;;;;5.10;3.37;;;1.40;99.90;1.10;100849.00;;;;4936264;28;117810;-66
2021/10/13 04:42:33;;;;;;;20.13;7.73;;;1.40;99.90;1.00;100853.00;;;;4937519;28;87744;-66
2021/10/13 04:44:59;;;;;;;20.67;10.10;;;1.30;99.90;1.00;100858.00;;;;4937093;28;86748;-66
2021/10/13 04:47:25;;;;;;;7.37;5.47;;;1.30;99.90;1.00;100860.00;;;;4936362;28;98937;-66
2021/10/13 04:49:51;;;;;;;20.63;5.70;;;1.30;99.90;1.00;100856.00;;;;4937033;28;98440;-66
2021/10/13 04:52:17;;;;;;;14.03;8.00;;;1.30;99.90;1.00;100858.00;;;;4936747;28;88564;-66
2021/10/13 04:54:43;;;;;;;15.80;9.47;;;1.30;99.90;1.00;100861.00;;;;4937395;28;87799;-66
2021/10/13 04:57:09;;;;;;;14.13;9.07;;;1.30;99.90;0.90;100868.00;;;;4936742;28;100320;-66
2021/10/13 04:59:34;;;;;;;17.60;6.90;;;1.30;99.90;0.90;100850.00;;;;4936271;28;87781;-67
2021/10/13 05:02:00;;;;;;;25.30;11.53;;;1.20;99.90;0.90;100852.00;;;;4919613;28;87934;-66
2021/10/13 05:04:26;;;;;;;11.97;4.97;;;1.20;99.90;0.90;100863.00;;;;4936420;28;87875;-66
2021/10/13 05:06:51;;;;;;;7.20;3.87;;;1.20;99.90;0.90;100870.00;;;;4935781;28;118683;-65
2021/10/13 05:09:17;;;;;;;4.27;2.73;;;1.30;99.90;1.00;100874.00;;;;4935990;28;117448;-65
2021/10/13 05:11:43;;;;;;;8.67;2.80;;;1.30;99.90;1.00;100878.00;;;;4935409;28;110892;-66
2021/10/13 05:14:10;;;;;;;5.13;3.07;;;1.20;99.90;0.90;100871.00;;;;4919626;28;87814;-65
2021/10/13 05:16:37;;;;;;;5.60;3.20;;;1.20;99.90;0.90;100879.00;;;;4936461;28;89352;-66
2021/10/13 05:19:03;;;;;;;4.80;3.20;;;1.20;99.90;1.00;100885.00;;;;4936502;28;89438;-66
2021/10/13 05:21:30;;;;;;;6.77;3.03;;;1.20;99.90;1.00;100884.00;;;;4936553;28;88167;-65
2021/10/13 05:23:55;;;;;;;6.20;3.23;;;1.30;99.90;1.00;100889.00;;;;4936033;28;109179;-66
2021/10/13 05:26:21;;;;;;;10.57;3.43;;;1.30;99.90;1.10;100897.00;;;;4934755;28;117368;-66
2021/10/13 05:28:47;;;;;;;4.57;2.37;;;1.40;99.90;1.10;100899.00;;;;4936318;28;88833;-66
2021/10/13 05:31:13;;;;;;;5.90;2.90;;;1.40;99.90;1.20;100901.00;;;;4937073;28;88143;-65
2021/10/13 05:33:39;;;;;;;3.67;2.87;;;1.40;99.90;1.20;100910.00;;;;4917671;28;108641;-66
2021/10/13 05:36:04;;;;;;;3.70;2.43;;;1.50;99.90;1.20;100913.00;;;;4935445;28;117626;-66
2021/10/13 05:38:30;;;;;;;2.83;2.33;;;1.50;99.90;1.20;100912.00;;;;4934604;28;118826;-66
2021/10/13 05:40:56;;;;;;;3.13;2.17;;;1.50;99.90;1.30;100912.00;;;;4936018;28;88802;-66
2021/10/13 05:43:26;;;;;;;2.47;2.27;;;1.50;99.90;1.30;100913.00;;;;4937841;28;109272;-66
2021/10/13 05:45:52;;;;;;;3.93;2.37;;;1.60;99.90;1.40;100921.00;;;;4935262;28;117166;-66
2021/10/13 05:48:17;;;;;;;3.37;2.33;;;1.70;99.90;1.40;100921.00;;;;4935171;28;118353;-65
2021/10/13 05:50:43;;;;;;;2.13;1.93;;;1.70;99.90;1.50;100933.00;;;;4935580;28;110176;-66
2021/10/13 05:53:09;;;;;;;4.00;2.13;;;1.70;99.90;1.60;100937.00;;;;4935521;28;99499;-66
2021/10/13 05:55:34;;;;;;;3.73;2.17;;;1.80;99.90;1.60;100944.00;;;;4935206;28;117661;-66
2021/10/13 05:58:03;;;;;;;3.23;2.03;;;1.90;99.90;1.70;100946.00;;;;4935145;28;117977;-66
2021/10/13 06:00:29;;;;;;;7.80;4.67;;;1.90;99.90;1.70;100940.00;;;;4935792;28;87751;-66
2021/10/13 06:02:56;;;;;;;17.60;10.20;;;2.00;99.90;1.70;100944.00;;;;4936167;28;87714;-66
2021/10/13 06:05:22;;;;;;;6.23;3.30;;;2.00;99.90;1.80;100951.00;;;;4934460;28;89333;-66
2021/10/13 06:07:48;;;;;;;5.53;3.00;;;2.10;99.90;1.90;100957.00;;;;4935708;28;89664;-66
2021/10/13 06:10:13;;;;;;;11.13;4.97;;;2.20;99.90;2.00;100955.00;;;;4935989;28;88970;-66
2021/10/13 06:12:39;;;;;;;6.03;3.67;;;2.20;99.90;2.00;100955.00;;;;4935978;28;96906;-66
2021/10/13 06:15:06;;;;;;;5.53;3.30;;;2.30;99.90;2.10;100961.00;;;;4935487;28;88329;-66
2021/10/13 06:17:32;;;;;;;5.23;3.63;;;2.30;99.90;2.20;100960.00;;;;4935474;28;87650;-66
2021/10/13 06:19:58;;;;;;;3.83;2.63;;;2.40;99.90;2.20;100961.00;;;;4934412;28;109968;-66
2021/10/13 06:22:24;;;;;;;21.13;9.83;;;2.50;99.90;2.30;100963.00;;;;4935789;28;109165;-65
2021/10/13 06:24:50;;;;;;;7.33;4.50;;;2.60;99.90;2.40;100963.00;;;;4935558;28;105777;-65
2021/10/13 06:27:16;;;;;;;4.07;3.47;;;2.60;99.90;2.50;100971.00;;;;4918825;28;89591;-65
2021/10/13 06:29:42;;;;;;;5.50;2.63;;;2.70;99.90;2.60;100976.00;;;;4914604;28;94487;-64
2021/10/13 06:32:08;;;;;;;3.63;2.83;;;2.80;99.90;2.60;100976.00;;;;4915463;28;108942;-66
2021/10/13 06:34:33;;;;;;;3.03;2.60;;;2.80;99.90;2.70;100986.00;;;;4916974;28;87911;-65
2021/10/13 06:37:00;;;;;;;5.93;3.27;;;2.90;99.90;2.80;100987.00;;;;4919271;28;117841;-65
2021/10/13 06:39:25;;;;;;;2.90;2.57;;;2.90;99.90;2.80;100993.00;;;;4916514;28;110740;-65
2021/10/13 06:41:51;;;;;;;4.03;3.33;;;3.00;99.90;2.90;100996.00;;;;4915662;28;109168;-66
2021/10/13 06:44:17;;;;;;;9.87;4.97;;;3.10;99.90;3.00;100994.00;;;;4915867;28;106012;-64
2021/10/13 06:46:43;;;;;;;7.07;4.57;;;3.20;99.90;3.10;101000.00;;;;4916668;28;88303;-66
2021/10/13 06:49:09;;;;;;;5.53;3.70;;;3.60;99.90;3.20;101012.00;;;;4913412;28;110375;-64
2021/10/13 06:51:35;;;;;;;3.97;3.10;;;3.30;99.90;3.30;101019.00;;;;4920296;28;87839;-65
2021/10/13 06:54:01;;;;;;;6.73;3.13;;;3.00;99.90;3.40;101028.00;;;;4915391;28;89917;-65
2021/10/13 06:56:27;;;;;;;8.87;3.93;;;3.50;99.90;3.50;101022.00;;;;4914664;28;88072;-64
2021/10/13 06:58:53;;;;;;;4.40;3.67;;;3.60;99.90;3.60;101028.00;;;;4915038;28;102449;-64
2021/10/13 07:01:19;;;;;;;4.40;2.83;;;3.80;99.90;3.70;101028.00;;;;4916121;28;87846;-64
2021/10/13 07:03:45;;;;;;;4.10;3.20;;;3.80;99.90;3.80;101030.00;;;;4915156;28;115771;-64
2021/10/13 07:06:11;;;;;;;4.80;3.97;;;3.90;99.90;3.90;101033.00;;;;4916001;28;88895;-64
2021/10/13 07:08:37;;;;;;;3.93;3.30;;;4.00;99.90;4.00;101034.00;;;;4915593;28;94309;-63
2021/10/13 07:11:03;;;;;;;4.60;3.27;;;4.10;99.90;4.10;101042.00;;;;4915437;28;107266;-63
2021/10/13 07:13:28;;;;;;;7.80;3.20;;;4.20;99.90;4.20;101046.00;;;;4915702;28;88041;-64
2021/10/13 07:15:54;;;;;;;6.90;4.03;;;4.20;99.90;4.30;101039.00;;;;4916026;28;87907;-64
2021/10/13 07:18:20;;;;;;;6.00;3.57;;;4.40;99.90;4.40;101051.00;;;;4913556;28;88803;-64
2021/10/13 07:20:45;;;;;;;4.83;3.10;;;4.50;99.90;4.50;101038.00;;;;4916321;28;87907;-63
2021/10/13 07:23:11;;;;;;;3.60;3.30;;;4.60;99.90;4.60;101043.00;;;;4916097;28;88321;-64
2021/10/13 07:25:37;;;;;;;9.83;3.93;;;4.70;99.90;4.70;101041.00;;;;4919805;28;87997;-63
2021/10/13 07:28:03;;;;;;;6.43;4.30;;;4.80;99.90;4.70;101049.00;;;;4935885;28;87506;-62
2021/10/13 07:30:31;;;;;;;5.63;4.17;;;4.90;99.90;4.80;101041.00;;;;4936882;28;87713;-63
2021/10/13 07:32:57;;;;;;;6.10;4.33;;;4.90;99.90;4.80;101042.00;;;;4938338;28;88260;-61
2021/10/13 07:35:27;;;;;;;6.27;3.43;;;5.00;99.90;4.90;101048.00;;;;4938971;28;98506;-63
2021/10/13 07:37:53;;;;;;;8.43;3.63;;;5.10;99.90;5.00;101060.00;;;;4938221;28;87755;-63
2021/10/13 07:40:19;;;;;;;10.37;4.13;;;5.10;99.90;5.10;101068.00;;;;4937184;28;108482;-63
2021/10/13 07:42:46;;;;;;;4.67;3.30;;;5.20;99.90;5.20;101066.00;;;;4937744;28;89210;-63
2021/10/13 07:45:12;;;;;;;5.20;4.27;;;5.30;99.90;5.30;101062.00;;;;4938065;28;96282;-64
2021/10/13 07:47:38;;;;;;;6.07;4.47;;;5.50;99.90;5.40;101066.00;;;;4938448;28;87452;-63
2021/10/13 07:50:05;;;;;;;7.23;4.17;;;5.40;99.90;5.50;101072.00;;;;4937301;28;108921;-63
2021/10/13 07:52:31;;;;;;;4.77;3.47;;;5.60;99.90;5.60;101073.00;;;;4938042;28;88678;-63
2021/10/13 07:54:57;;;;;;;5.07;4.27;;;5.70;99.90;5.60;101058.00;;;;4937286;28;117906;-63
2021/10/13 07:57:22;;;;;;;6.80;4.23;;;5.70;99.90;5.70;101074.00;;;;4937319;28;110445;-63
2021/10/13 07:59:50;;;;;;;8.33;5.40;;;5.80;99.90;5.80;101077.00;;;;4937518;28;109128;-63
2021/10/13 08:02:16;;;;;;;8.00;5.60;;;5.90;99.90;6.00;101080.00;;;;4938009;28;89033;-63
2021/10/13 08:04:42;;;;;;;7.00;5.27;;;6.00;99.90;6.20;101083.00;;;;4918224;28;89023;-63
2021/10/13 08:07:08;;;;;;;7.03;5.17;;;6.20;99.90;6.40;101085.00;;;;4922646;28;110127;-61
2021/10/13 08:09:34;;;;;;;10.23;6.10;;;6.40;99.90;6.50;101084.00;;;;4937616;28;87630;-63
2021/10/13 08:12:00;;;;;;;8.57;4.83;;;6.60;99.90;6.60;101099.00;;;;4937286;28;93757;-61
2021/10/13 08:14:27;;;;;;;8.40;5.77;;;6.70;99.90;6.70;101093.00;;;;4937738;28;87952;-62
2021/10/13 08:16:54;;;;;;;6.70;5.10;;;6.70;99.90;6.80;101093.00;;;;4938204;28;87777;-62
2021/10/13 08:19:19;;;;;;;8.77;5.23;;;6.90;99.90;6.90;101095.00;;;;4938048;28;87916;-62
2021/10/13 08:21:45;;;;;;;7.23;5.93;;;6.90;99.90;7.00;101102.00;;;;4938078;28;88675;-62
2021/10/13 08:24:11;;;;;;;8.80;5.33;;;7.00;99.90;7.00;101087.00;;;;4937154;28;117398;-62
2021/10/13 08:26:37;;;;;;;7.33;5.57;;;7.10;99.90;7.00;101103.00;;;;4919815;28;88239;-62
2021/10/13 08:29:02;;;;;;;8.13;5.20;;;7.10;99.90;6.90;101109.00;;;;4937104;28;87912;-63
2021/10/13 08:31:29;;;;;;;8.80;5.33;;;7.00;99.90;6.90;101108.00;;;;4937012;28;89244;-64
2021/10/13 08:33:55;;;;;;;7.63;5.30;;;7.00;99.90;6.90;101114.00;;;;4937829;28;108528;-62
2021/10/13 08:36:21;;;;;;;9.40;5.93;;;7.00;99.90;7.00;101112.00;;;;4937333;28;110611;-63
2021/10/13 08:38:47;;;;;;;8.20;5.20;;;7.10;99.90;7.00;101111.00;;;;4937055;28;87769;-62
2021/10/13 08:41:14;;;;;;;8.27;5.70;;;7.10;99.90;7.10;101112.00;;;;4937213;28;117767;-63
2021/10/13 08:43:43;;;;;;;8.10;5.83;;;7.10;99.90;7.20;101116.00;;;;4937593;28;97097;-63
2021/10/13 08:46:09;;;;;;;6.20;5.00;;;7.20;99.90;7.30;101109.00;;;;4938097;28;87522;-62
2021/10/13 08:48:34;;;;;;;8.97;5.33;;;7.40;99.90;7.40;101105.00;;;;4937491;28;107624;-62
2021/10/13 08:51:00;;;;;;;8.10;5.47;;;7.80;99.90;7.50;101112.00;;;;4936793;28;117397;-62
2021/10/13 08:53:26;;;;;;;10.17;6.23;;;7.50;99.90;7.60;101109.00;;;;4936566;28;115504;-63
2021/10/13 08:55:52;;;;;;;9.87;6.33;;;7.60;99.90;7.80;101115.00;;;;4936941;28;111883;-64
2021/10/13 08:58:21;;;;;;;9.73;6.13;;;7.80;99.90;7.80;101119.00;;;;4938114;28;87950;-64
2021/10/13 09:01:10;;;;;;;8.00;6.10;;;7.80;99.90;7.90;101121.00;;;;4937183;28;89222;-64
2021/10/13 09:03:45;;;;;;;12.53;7.00;;;7.90;99.90;7.90;101118.00;;;;4936946;28;88440;-64
2021/10/13 09:06:29;;;;;;;7.40;5.30;;;8.00;99.90;7.90;101118.00;;;;4938334;28;87731;-65
2021/10/13 09:09:11;;;;;;;6.40;4.77;;;8.00;99.90;7.90;101126.00;;;;4938190;28;87855;-63
2021/10/13 09:11:48;;;;;;;10.20;6.23;;;8.00;99.90;7.80;101121.00;;;;4937012;28;88500;-64
2021/10/13 09:14:21;;;;;;;8.30;5.53;;;8.00;99.90;7.70;101122.00;;;;4937655;28;87099;-63
2021/10/13 09:17:01;;;;;;;12.47;6.20;;;7.80;99.90;7.70;101134.00;;;;4938003;28;87611;-63
2021/10/13 09:19:42;;;;;;;11.87;6.80;;;7.90;99.90;7.60;101123.00;;;;4936794;28;87856;-63
2021/10/13 09:22:14;;;;;;;9.37;6.47;;;7.70;99.90;7.60;101129.00;;;;4937000;28;89170;-64
2021/10/13 09:24:49;;;;;;;9.27;6.07;;;7.70;99.90;7.70;101133.00;;;;4937243;28;88699;-63
2021/10/13 09:27:29;;;;;;;8.07;5.53;;;7.80;99.90;7.70;101128.00;;;;4937740;28;87913;-63
2021/10/13 09:30:00;;;;;;;7.53;5.97;;;7.80;99.90;7.90;101131.00;;;;4935230;28;87791;-63
2021/10/13 09:32:27;;;;;;;11.40;6.13;;;7.90;99.90;8.10;101130.00;;;;4937133;28;87915;-63
2021/10/13 09:34:54;;;;;;;7.90;5.07;;;8.10;99.90;8.20;101132.00;;;;4936819;28;89050;-63
2021/10/13 09:37:24;;;;;;;7.63;5.93;;;8.20;99.90;8.50;101136.00;;;;4937221;28;87682;-63
2021/10/13 09:40:04;;;;;;;10.77;7.07;;;8.40;99.90;9.00;101146.00;;;;4937105;28;88799;-64
2021/10/13 09:42:41;;;;;;;10.47;5.87;;;8.80;99.90;9.30;101149.00;;;;4936937;28;88238;-64
2021/10/13 09:45:11;;;;;;;8.10;6.13;;;9.20;99.90;9.50;101141.00;;;;4936532;28;88211;-64
2021/10/13 09:47:38;;;;;;;12.87;6.47;;;9.40;99.90;9.60;101148.00;;;;4935798;28;93506;-64
2021/10/13 09:50:11;;;;;;;8.07;5.67;;;9.60;99.90;9.70;101149.00;;;;4935982;28;87798;-65
2021/10/13 09:52:37;;;;;;;9.97;5.47;;;9.70;99.90;9.90;101153.00;;;;4935818;28;100952;-66
2021/10/13 09:55:12;;;;;;;7.07;4.23;;;9.90;99.90;10.00;101145.00;;;;4917585;28;88948;-66
2021/10/13 09:57:49;;;;;;;6.30;5.17;;;10.00;99.90;10.40;101144.00;;;;4936708;28;93662;-65
2021/10/13 10:00:26;;;;;;;6.47;4.10;;;10.30;99.90;10.80;101157.00;;;;4936077;28;87986;-64
2021/10/13 10:03:00;;;;;;;9.07;4.80;;;10.60;99.90;11.10;101156.00;;;;4934081;28;89509;-64
2021/10/13 10:05:32;;;;;;;5.93;3.80;;;11.00;99.90;11.40;101149.00;;;;4918806;28;88032;-64
2021/10/13 10:08:06;;;;;;;5.57;4.00;;;11.20;99.90;11.80;101150.00;;;;4936764;28;93530;-64
2021/10/13 10:10:34;;;;;;;6.57;3.90;;;11.60;99.90;12.30;101164.00;;;;4936951;28;87815;-63
2021/10/13 10:13:11;;;;;;;6.80;3.90;;;12.00;99.90;12.70;101167.00;;;;4935712;28;89155;-64
2021/10/13 10:15:37;;;;;;;3.97;2.97;;;12.50;99.90;13.20;101165.00;;;;4918195;28;88780;-65
2021/10/13 10:18:27;;;;;;;4.70;2.73;;;12.90;99.90;13.50;101169.00;;;;4936592;28;87855;-64
2021/10/13 10:20:55;;;;;;;3.03;2.47;;;13.30;99.90;13.70;101162.00;;;;4936830;28;87771;-63
2021/10/13 10:23:34;;;;;;;2.50;2.00;;;13.50;99.90;13.70;101170.00;;;;4935422;28;118276;-63
2021/10/13 10:26:28;;;;;;;2.70;2.47;;;13.60;99.90;13.80;101164.00;;;;4936799;28;88229;-63
2021/10/13 10:29:03;;;;;;;4.53;2.53;;;13.70;99.90;13.80;101162.00;;;;4936511;28;88050;-63
2021/10/13 10:31:36;;;;;;;3.73;2.50;;;13.70;99.90;13.70;101160.00;;;;4917623;28;87051;-63
2021/10/13 10:34:13;;;;;;;4.00;2.63;;;13.70;99.90;13.60;101156.00;;;;4916829;28;88029;-63
2021/10/13 10:36:39;;;;;;;2.97;2.03;;;13.60;99.90;13.60;101161.00;;;;4916445;28;88506;-63
2021/10/13 10:39:08;;;;;;;3.17;1.93;;;13.30;99.90;13.70;101157.00;;;;4917368;28;88928;-64
2021/10/13 10:41:53;;;;;;;3.77;2.37;;;13.60;99.90;13.90;101160.00;;;;4916452;28;93925;-63
2021/10/13 10:44:52;;;;;;;4.43;2.70;;;13.80;99.90;14.30;101156.00;;;;4916620;28;88075;-63
2021/10/13 10:47:19;;;;;;;6.17;2.80;;;14.10;99.90;14.30;101162.00;;;;4934485;28;117462;-64
2021/10/13 10:49:51;;;;;;;3.63;2.67;;;14.20;99.00;14.40;101151.00;;;;4935277;28;108724;-63
2021/10/13 10:52:27;;;;;;;3.67;2.40;;;14.30;98.50;14.50;101152.00;;;;4936663;28;87834;-63
2021/10/13 10:55:07;;;;;;;3.60;2.40;;;14.40;96.60;14.80;101157.00;;;;4935673;28;88227;-63
2021/10/13 10:57:43;;;;;;;3.37;2.60;;;14.60;97.50;14.80;101153.00;;;;4936449;28;88520;-63
2021/10/13 11:00:23;;;;;;;2.37;1.90;;;14.70;93.80;14.80;101158.00;;;;4936263;28;87909;-63
2021/10/13 11:03:17;;;;;;;3.77;2.43;;;14.70;93.00;14.80;101148.00;;;;4939167;28;87672;-63
2021/10/13 11:05:45;;;;;;;2.93;2.20;;;14.80;91.80;14.90;101153.00;;;;4940864;28;88739;-63
2021/10/13 11:08:11;;;;;;;2.57;2.37;;;14.80;90.70;14.90;101157.00;;;;4940092;28;89654;-62